Time;durP1;ratioP1;P1;durP2;ratioP2;P2;SDS_P1;SDS_P2;PMS_P1;PMS_P2;Temp;Humidity;BMP_temperature;BMP_pressure;BME280_temperature;BME280_humidity;BME280_pressure;Samples;Min_cycle;Max_cycle;Signal;HPM_P1;HPM_P2
2022/10/27 00:00:23;;;;;;;10.43;4.80;;;;;;;;;;5097103;28;20233;-66
2022/10/27 00:02:50;;;;;;;9.43;4.10;;;;;;;;;;5096825;28;20637;-66
2022/10/27 00:05:21;;;;;;;11.17;4.60;;;;;;;;;;5097209;28;20304;-66
2022/10/27 00:07:49;;;;;;;8.83;4.50;;;;;;;;;;5097358;28;20248;-66
2022/10/27 00:10:17;;;;;;;8.63;4.23;;;;;;;;;;5097406;28;20569;-66
2022/10/27 00:12:45;;;;;;;11.97;5.00;;;;;;;;;;5097081;28;20652;-66
2022/10/27 00:15:13;;;;;;;12.27;4.67;;;;;;;;;;5097181;28;20229;-66
2022/10/27 00:17:41;;;;;;;8.30;4.17;;;;;;;;;;5096915;28;20692;-66
2022/10/27 00:20:09;;;;;;;7.57;4.60;;;;;;;;;;5097139;28;20280;-66
2022/10/27 00:22:38;;;;;;;11.63;4.67;;;;;;;;;;5097121;28;20237;-66
2022/10/27 00:25:06;;;;;;;10.63;4.47;;;;;;;;;;5097233;28;20261;-66
2022/10/27 00:27:33;;;;;;;6.70;4.53;;;;;;;;;;5098382;28;20668;-66
2022/10/27 00:30:01;;;;;;;11.67;4.97;;;;;;;;;;5101131;28;20236;-66
2022/10/27 00:32:29;;;;;;;13.47;4.83;;;;;;;;;;5100569;28;20281;-66
2022/10/27 00:34:56;;;;;;;9.40;4.00;;;;;;;;;;5100596;28;20264;-66
2022/10/27 00:37:24;;;;;;;13.40;4.30;;;;;;;;;;5100664;28;20267;-66
2022/10/27 00:39:53;;;;;;;10.30;5.10;;;;;;;;;;5100911;28;20239;-66
2022/10/27 00:42:21;;;;;;;8.40;3.63;;;;;;;;;;5100686;28;20248;-65
2022/10/27 00:44:48;;;;;;;12.80;5.00;;;;;;;;;;5100677;28;20312;-65
2022/10/27 00:47:19;;;;;;;9.77;4.57;;;;;;;;;;5100361;28;20651;-66
2022/10/27 00:49:49;;;;;;;8.17;4.23;;;;;;;;;;5100878;28;20683;-66
2022/10/27 00:52:20;;;;;;;12.10;4.23;;;;;;;;;;5100577;28;20705;-65
2022/10/27 00:54:48;;;;;;;7.73;5.10;;;;;;;;;;5100218;28;20279;-65
2022/10/27 00:57:17;;;;;;;14.03;4.93;;;;;;;;;;5100237;28;20264;-66
2022/10/27 00:59:44;;;;;;;8.87;4.47;;;;;;;;;;5100426;28;20288;-66
2022/10/27 01:02:12;;;;;;;7.57;4.07;;;;;;;;;;5100172;28;20703;-66
2022/10/27 01:04:44;;;;;;;6.33;4.70;;;;;;;;;;5100017;28;20308;-66
2022/10/27 01:07:13;;;;;;;5.37;3.90;;;;;;;;;;5100364;28;20296;-66
2022/10/27 01:09:41;;;;;;;8.53;4.70;;;;;;;;;;5099887;28;20905;-66
2022/10/27 01:12:09;;;;;;;7.73;4.83;;;;;;;;;;5100218;28;20206;-65
2022/10/27 01:14:38;;;;;;;12.53;4.67;;;;;;;;;;5099853;28;20275;-65
2022/10/27 01:17:10;;;;;;;8.13;4.57;;;;;;;;;;5099705;28;20309;-64
2022/10/27 01:19:55;;;;;;;11.50;4.47;;;;;;;;;;5099775;28;20248;-65
2022/10/27 01:22:29;;;;;;;9.53;4.80;;;;;;;;;;5099988;28;20237;-65
2022/10/27 01:25:05;;;;;;;14.63;5.53;;;;;;;;;;5099884;28;20606;-65
2022/10/27 01:27:47;;;;;;;13.13;5.37;;;;;;;;;;5099867;28;20229;-66
2022/10/27 01:30:18;;;;;;;7.27;4.33;;;;;;;;;;5097601;28;20209;-66
2022/10/27 01:32:53;;;;;;;12.13;4.97;;;;;;;;;;5099442;28;20289;-65
2022/10/27 01:35:25;;;;;;;10.17;5.07;;;;;;;;;;5099327;28;20270;-66
2022/10/27 01:37:57;;;;;;;10.37;5.30;;;;;;;;;;5099602;28;20243;-66
2022/10/27 01:40:28;;;;;;;13.93;4.70;;;;;;;;;;5098566;28;20237;-66
2022/10/27 01:42:58;;;;;;;11.60;4.80;;;;;;;;;;5099659;28;20244;-66
2022/10/27 01:45:28;;;;;;;6.60;4.50;;;;;;;;;;5099532;28;20289;-65
2022/10/27 01:47:57;;;;;;;10.83;5.07;;;;;;;;;;5099288;28;20250;-65
2022/10/27 01:50:27;;;;;;;15.20;5.27;;;;;;;;;;5099140;28;20236;-65
2022/10/27 01:53:15;;;;;;;10.47;5.10;;;;;;;;;;5098883;28;20219;-66
2022/10/27 01:55:46;;;;;;;17.33;5.90;;;;;;;;;;5099119;28;20758;-66
2022/10/27 01:58:32;;;;;;;9.07;4.63;;;;;;;;;;5098981;28;20229;-66
2022/10/27 02:01:07;;;;;;;8.70;4.90;;;;;;;;;;5098994;28;20575;-65
2022/10/27 02:03:40;;;;;;;8.73;4.87;;;;;;;;;;5098988;28;20654;-66
2022/10/27 02:06:10;;;;;;;9.53;5.17;;;;;;;;;;5099349;28;20269;-66
2022/10/27 02:08:40;;;;;;;12.60;5.70;;;;;;;;;;5099068;28;20288;-65
2022/10/27 02:11:09;;;;;;;8.90;5.00;;;;;;;;;;5098777;28;20237;-66
2022/10/27 02:13:38;;;;;;;12.77;6.20;;;;;;;;;;5098966;28;20289;-65
2022/10/27 02:16:08;;;;;;;10.33;5.33;;;;;;;;;;5098440;28;20288;-65
2022/10/27 02:18:38;;;;;;;12.07;5.60;;;;;;;;;;5098735;28;20285;-66
2022/10/27 02:21:08;;;;;;;8.27;5.50;;;;;;;;;;5098806;28;20285;-65
2022/10/27 02:23:36;;;;;;;9.40;5.30;;;;;;;;;;5098369;28;20286;-65
2022/10/27 02:26:08;;;;;;;12.07;5.50;;;;;;;;;;5098503;28;20205;-65
2022/10/27 02:28:38;;;;;;;12.50;5.90;;;;;;;;;;5098723;28;20236;-66
2022/10/27 02:31:07;;;;;;;10.03;5.53;;;;;;;;;;5098490;28;20205;-65
2022/10/27 02:33:35;;;;;;;10.80;5.17;;;;;;;;;;5098510;28;20252;-66
2022/10/27 02:36:04;;;;;;;10.00;5.47;;;;;;;;;;5098251;28;20292;-65
2022/10/27 02:38:35;;;;;;;13.73;5.90;;;;;;;;;;5098465;28;20254;-65
2022/10/27 02:41:02;;;;;;;7.37;5.43;;;;;;;;;;5098188;28;20644;-65
2022/10/27 02:43:30;;;;;;;10.30;5.40;;;;;;;;;;5098417;28;20249;-65
2022/10/27 02:45:58;;;;;;;8.67;5.27;;;;;;;;;;5098230;28;20575;-66
2022/10/27 02:48:26;;;;;;;14.30;6.10;;;;;;;;;;5098158;28;20202;-65
2022/10/27 02:50:53;;;;;;;12.40;5.53;;;;;;;;;;5097425;28;20248;-65
2022/10/27 02:53:22;;;;;;;8.73;5.40;;;;;;;;;;5098004;28;20279;-65
2022/10/27 02:55:50;;;;;;;12.77;5.20;;;;;;;;;;5098061;28;20265;-66
2022/10/27 02:58:18;;;;;;;13.53;6.53;;;;;;;;;;5098105;28;20264;-66
2022/10/27 03:00:45;;;;;;;9.83;5.37;;;;;;;;;;5098169;28;20300;-66
2022/10/27 03:03:13;;;;;;;10.37;5.83;;;;;;;;;;5097757;28;20203;-65
2022/10/27 03:05:41;;;;;;;11.00;5.57;;;;;;;;;;5098174;28;20288;-65
2022/10/27 03:08:14;;;;;;;8.67;5.27;;;;;;;;;;5097994;28;20198;-65
2022/10/27 03:10:44;;;;;;;11.93;5.50;;;;;;;;;;5098172;28;20273;-66
2022/10/27 03:13:12;;;;;;;11.77;5.60;;;;;;;;;;5098208;28;20269;-65
2022/10/27 03:15:40;;;;;;;11.53;5.57;;;;;;;;;;5097724;28;20201;-65
2022/10/27 03:18:08;;;;;;;10.87;6.47;;;;;;;;;;5097216;28;20253;-66
2022/10/27 03:20:35;;;;;;;12.00;5.50;;;;;;;;;;5097729;28;20256;-66
2022/10/27 03:23:03;;;;;;;12.93;5.23;;;;;;;;;;5097578;28;20668;-66
2022/10/27 03:25:35;;;;;;;11.93;5.90;;;;;;;;;;5097974;28;20634;-66
2022/10/27 03:28:05;;;;;;;13.77;5.70;;;;;;;;;;5097827;28;20608;-65
2022/10/27 03:30:32;;;;;;;10.87;5.97;;;;;;;;;;5097485;28;20287;-66
2022/10/27 03:33:02;;;;;;;12.57;5.77;;;;;;;;;;5097256;28;20293;-66
2022/10/27 03:35:29;;;;;;;11.77;6.30;;;;;;;;;;5097746;28;20699;-66
2022/10/27 03:37:58;;;;;;;9.87;6.47;;;;;;;;;;5097562;28;20221;-65
2022/10/27 03:40:25;;;;;;;13.80;6.67;;;;;;;;;;5097648;28;20291;-65
2022/10/27 03:42:57;;;;;;;10.47;6.27;;;;;;;;;;5097644;28;20288;-65
2022/10/27 03:45:26;;;;;;;10.93;6.67;;;;;;;;;;5097707;28;20327;-65
2022/10/27 03:48:01;;;;;;;13.73;7.33;;;;;;;;;;5097125;28;20292;-65
2022/10/27 03:50:29;;;;;;;17.37;6.90;;;;;;;;;;5097677;28;20261;-65
2022/10/27 03:52:57;;;;;;;13.17;6.97;;;;;;;;;;5097563;28;20210;-65
2022/10/27 03:55:25;;;;;;;11.03;6.53;;;;;;;;;;5097266;28;20264;-65
2022/10/27 03:57:53;;;;;;;15.10;7.73;;;;;;;;;;5097249;28;20264;-66
2022/10/27 04:00:21;;;;;;;12.70;6.57;;;;;;;;;;5097566;28;20227;-66
2022/10/27 04:02:52;;;;;;;12.63;7.30;;;;;;;;;;5099425;28;20233;-65
2022/10/27 04:05:20;;;;;;;12.37;7.23;;;;;;;;;;5101252;28;20240;-65
2022/10/27 04:07:48;;;;;;;15.03;6.97;;;;;;;;;;5101102;28;20241;-65
2022/10/27 04:10:16;;;;;;;19.00;7.00;;;;;;;;;;5101386;28;20233;-66
2022/10/27 04:12:47;;;;;;;12.10;7.10;;;;;;;;;;5101366;28;20241;-65
2022/10/27 04:15:15;;;;;;;15.27;7.23;;;;;;;;;;5101219;28;20609;-65
2022/10/27 04:17:43;;;;;;;13.87;7.73;;;;;;;;;;5100868;28;20242;-65
2022/10/27 04:20:13;;;;;;;14.70;7.50;;;;;;;;;;5101243;28;20211;-65
2022/10/27 04:22:40;;;;;;;14.23;7.53;;;;;;;;;;5101067;28;20236;-65
2022/10/27 04:25:08;;;;;;;12.10;6.60;;;;;;;;;;5101101;28;20270;-65
2022/10/27 04:27:36;;;;;;;12.83;6.60;;;;;;;;;;5101113;28;20705;-65
2022/10/27 04:30:04;;;;;;;14.73;6.97;;;;;;;;;;5101025;28;20213;-65
2022/10/27 04:32:32;;;;;;;13.93;6.70;;;;;;;;;;5100401;28;20257;-65
2022/10/27 04:34:59;;;;;;;13.37;7.60;;;;;;;;;;5100936;28;20708;-65
2022/10/27 04:37:28;;;;;;;13.43;6.40;;;;;;;;;;5100561;28;20564;-65
2022/10/27 04:39:57;;;;;;;18.27;7.77;;;;;;;;;;5100881;28;20201;-65
2022/10/27 04:42:25;;;;;;;13.73;7.20;;;;;;;;;;5100430;28;20233;-65
2022/10/27 04:44:52;;;;;;;13.07;6.87;;;;;;;;;;5100682;28;20312;-65
2022/10/27 04:47:20;;;;;;;14.57;6.63;;;;;;;;;;5100382;28;20661;-65
2022/10/27 04:49:48;;;;;;;12.67;7.00;;;;;;;;;;5100637;28;20289;-65
2022/10/27 04:52:15;;;;;;;15.47;7.00;;;;;;;;;;5100592;28;20301;-65
2022/10/27 04:54:44;;;;;;;16.70;7.60;;;;;;;;;;5100141;28;20269;-65
2022/10/27 04:57:12;;;;;;;14.10;7.10;;;;;;;;;;5100533;28;20244;-65
2022/10/27 04:59:40;;;;;;;13.70;7.43;;;;;;;;;;5100090;28;20328;-65
2022/10/27 05:02:07;;;;;;;15.10;7.33;;;;;;;;;;5100118;28;20229;-65
2022/10/27 05:04:35;;;;;;;14.33;7.03;;;;;;;;;;5100254;28;20228;-65
2022/10/27 05:07:03;;;;;;;15.17;7.13;;;;;;;;;;5100401;28;20274;-65
2022/10/27 05:09:33;;;;;;;18.47;7.23;;;;;;;;;;5099854;28;20267;-65
2022/10/27 05:12:05;;;;;;;12.83;6.90;;;;;;;;;;5100211;28;20315;-65
2022/10/27 05:14:32;;;;;;;10.23;6.80;;;;;;;;;;5098735;28;20268;-66
2022/10/27 05:17:00;;;;;;;14.73;7.60;;;;;;;;;;5099888;28;20280;-66
2022/10/27 05:19:28;;;;;;;13.97;6.53;;;;;;;;;;5099696;28;20251;-65
2022/10/27 05:21:56;;;;;;;12.03;6.60;;;;;;;;;;5100141;28;20210;-65
2022/10/27 05:24:23;;;;;;;12.67;6.67;;;;;;;;;;5099340;28;20661;-65
2022/10/27 05:26:51;;;;;;;16.90;7.00;;;;;;;;;;5099423;28;20244;-66
2022/10/27 05:29:20;;;;;;;12.50;6.67;;;;;;;;;;5099791;28;20299;-65
2022/10/27 05:31:48;;;;;;;9.17;6.77;;;;;;;;;;5099213;28;20346;-65
2022/10/27 05:34:15;;;;;;;11.30;7.03;;;;;;;;;;5099337;28;20735;-65
2022/10/27 05:36:43;;;;;;;15.17;7.70;;;;;;;;;;5099328;28;20288;-65
2022/10/27 05:39:10;;;;;;;12.40;6.53;;;;;;;;;;5099441;28;20319;-65
2022/10/27 05:41:38;;;;;;;13.97;7.37;;;;;;;;;;5099336;28;20677;-65
2022/10/27 05:44:06;;;;;;;11.17;6.40;;;;;;;;;;5099412;28;20225;-65
2022/10/27 05:46:35;;;;;;;13.37;7.27;;;;;;;;;;5099324;28;20359;-65
2022/10/27 05:49:03;;;;;;;14.17;7.50;;;;;;;;;;5099377;28;20201;-65
2022/10/27 05:51:33;;;;;;;14.70;7.73;;;;;;;;;;5099416;28;20237;-65
2022/10/27 05:54:00;;;;;;;15.97;8.03;;;;;;;;;;5098956;28;20232;-65
2022/10/27 05:56:28;;;;;;;12.23;7.20;;;;;;;;;;5099344;28;20259;-65
2022/10/27 05:58:56;;;;;;;13.07;7.77;;;;;;;;;;5099229;28;20265;-65
2022/10/27 06:01:24;;;;;;;17.50;7.40;;;;;;;;;;5098826;28;20209;-65
2022/10/27 06:03:53;;;;;;;16.23;7.27;;;;;;;;;;5099227;28;20229;-65
2022/10/27 06:06:20;;;;;;;14.27;7.30;;;;;;;;;;5098942;28;20573;-65
2022/10/27 06:08:48;;;;;;;19.67;6.73;;;;;;;;;;5099030;28;20289;-66
2022/10/27 06:11:16;;;;;;;14.60;7.73;;;;;;;;;;5098745;28;20241;-65
2022/10/27 06:13:43;;;;;;;15.20;7.27;;;;;;;;;;5099021;28;20226;-65
2022/10/27 06:16:11;;;;;;;15.77;7.43;;;;;;;;;;5098281;28;20665;-65
2022/10/27 06:18:39;;;;;;;9.23;6.23;;;;;;;;;;5088701;28;20263;-65
2022/10/27 06:21:08;;;;;;;11.60;6.80;;;;;;;;;;5098893;28;20684;-65
2022/10/27 06:23:36;;;;;;;13.20;6.90;;;;;;;;;;5098426;28;20257;-65
2022/10/27 06:26:04;;;;;;;15.43;7.53;;;;;;;;;;5098236;28;20235;-65
2022/10/27 06:28:34;;;;;;;11.30;6.80;;;;;;;;;;5098856;28;20237;-67
2022/10/27 06:31:02;;;;;;;17.80;8.67;;;;;;;;;;5098252;28;20252;-65
2022/10/27 06:33:29;;;;;;;15.93;7.53;;;;;;;;;;5098427;28;20692;-65
2022/10/27 06:35:59;;;;;;;13.27;7.27;;;;;;;;;;5098682;28;20251;-65
2022/10/27 06:38:28;;;;;;;15.07;8.80;;;;;;;;;;5098140;28;20201;-65
2022/10/27 06:40:58;;;;;;;31.27;8.90;;;;;;;;;;5097994;28;20209;-65
2022/10/27 06:43:26;;;;;;;20.20;8.13;;;;;;;;;;5098366;28;20293;-66
2022/10/27 06:45:53;;;;;;;16.27;7.47;;;;;;;;;;5098187;28;20237;-65
2022/10/27 06:48:26;;;;;;;23.47;7.87;;;;;;;;;;5098337;28;20606;-65
2022/10/27 06:50:53;;;;;;;20.33;8.20;;;;;;;;;;5098209;28;20233;-66
2022/10/27 06:53:21;;;;;;;17.30;7.70;;;;;;;;;;5098239;28;20256;-65
2022/10/27 06:55:50;;;;;;;19.37;7.73;;;;;;;;;;5098120;28;20730;-66
2022/10/27 06:58:18;;;;;;;14.20;6.80;;;;;;;;;;5098181;28;20248;-65
2022/10/27 07:00:45;;;;;;;19.27;8.10;;;;;;;;;;5097809;28;20257;-65
2022/10/27 07:03:13;;;;;;;13.60;7.33;;;;;;;;;;5097821;28;20212;-65
2022/10/27 07:05:41;;;;;;;12.03;7.27;;;;;;;;;;5098049;28;20243;-66
2022/10/27 07:08:08;;;;;;;16.27;7.93;;;;;;;;;;5097676;28;20251;-64
2022/10/27 07:10:36;;;;;;;17.63;7.50;;;;;;;;;;5098147;28;20205;-65
2022/10/27 07:13:05;;;;;;;15.23;7.30;;;;;;;;;;5097657;28;20296;-65
2022/10/27 07:15:35;;;;;;;11.23;7.33;;;;;;;;;;5097806;28;20258;-65
2022/10/27 07:18:04;;;;;;;11.60;6.90;;;;;;;;;;5097331;28;20265;-65
2022/10/27 07:20:33;;;;;;;17.70;7.80;;;;;;;;;;5097565;28;20293;-66
2022/10/27 07:23:02;;;;;;;17.30;7.53;;;;;;;;;;5097433;28;20657;-65
2022/10/27 07:25:32;;;;;;;14.87;7.40;;;;;;;;;;5097769;28;20263;-65
2022/10/27 07:28:02;;;;;;;18.43;8.93;;;;;;;;;;5097731;28;20201;-65
2022/10/27 07:30:33;;;;;;;17.87;8.37;;;;;;;;;;5097711;28;20251;-65
2022/10/27 07:33:00;;;;;;;17.53;8.50;;;;;;;;;;5097122;28;20241;-65
2022/10/27 07:35:28;;;;;;;17.93;8.03;;;;;;;;;;5097368;28;20209;-66
2022/10/27 07:37:56;;;;;;;14.53;8.13;;;;;;;;;;5099885;28;20248;-65
2022/10/27 07:40:24;;;;;;;15.83;7.73;;;;;;;;;;5101693;28;20726;-66
2022/10/27 07:42:59;;;;;;;15.07;7.77;;;;;;;;;;5101502;28;20208;-65
2022/10/27 07:45:36;;;;;;;15.77;7.83;;;;;;;;;;5101250;28;20236;-65
2022/10/27 07:48:04;;;;;;;22.13;7.70;;;;;;;;;;5101452;28;20212;-65
2022/10/27 07:50:33;;;;;;;19.07;8.03;;;;;;;;;;5101644;28;20696;-65
2022/10/27 07:53:01;;;;;;;17.23;7.93;;;;;;;;;;5101499;28;20668;-64
2022/10/27 07:55:29;;;;;;;20.80;7.70;;;;;;;;;;5101224;28;20260;-64
2022/10/27 07:58:00;;;;;;;17.40;8.73;;;;;;;;;;5101314;28;20212;-64
2022/10/27 08:00:29;;;;;;;19.03;8.97;;;;;;;;;;5101178;28;20276;-66
2022/10/27 08:03:01;;;;;;;16.63;8.90;;;;;;;;;;5101201;28;20665;-64
2022/10/27 08:05:28;;;;;;;14.97;7.83;;;;;;;;;;5101494;28;20672;-65
2022/10/27 08:07:57;;;;;;;11.50;8.33;;;;;;;;;;5101156;28;20640;-64
2022/10/27 08:10:24;;;;;;;15.77;8.43;;;;;;;;;;5101331;28;20206;-64
2022/10/27 08:12:52;;;;;;;18.23;9.07;;;;;;;;;;5101338;28;20706;-64
2022/10/27 08:15:20;;;;;;;16.17;8.60;;;;;;;;;;5101156;28;20237;-64
2022/10/27 08:17:50;;;;;;;21.80;8.97;;;;;;;;;;5100913;28;20237;-65
2022/10/27 08:20:21;;;;;;;17.13;9.23;;;;;;;;;;5100928;28;20229;-63
2022/10/27 08:22:54;;;;;;;12.67;8.83;;;;;;;;;;5101063;28;20209;-64
2022/10/27 08:25:21;;;;;;;15.50;9.10;;;;;;;;;;5101091;28;20334;-64
2022/10/27 08:27:49;;;;;;;14.53;8.37;;;;;;;;;;5100772;28;20636;-65
2022/10/27 08:30:17;;;;;;;14.50;8.47;;;;;;;;;;5101034;28;20205;-66
2022/10/27 08:32:45;;;;;;;16.83;8.93;;;;;;;;;;5100715;28;20230;-66
2022/10/27 08:35:12;;;;;;;14.40;7.77;;;;;;;;;;5100714;28;20656;-66
2022/10/27 08:37:41;;;;;;;20.13;8.27;;;;;;;;;;5100686;28;20293;-65
2022/10/27 08:40:10;;;;;;;16.40;8.87;;;;;;;;;;5100794;28;20297;-65
2022/10/27 08:42:41;;;;;;;16.03;8.90;;;;;;;;;;5100743;28;20285;-65
2022/10/27 08:45:12;;;;;;;16.70;8.93;;;;;;;;;;5100670;28;20282;-66
2022/10/27 08:47:40;;;;;;;22.67;9.60;;;;;;;;;;5100415;28;20212;-66
2022/10/27 08:50:12;;;;;;;16.90;9.20;;;;;;;;;;5100692;28;20242;-66
2022/10/27 08:52:41;;;;;;;14.87;8.13;;;;;;;;;;5100407;28;20238;-66
2022/10/27 08:55:18;;;;;;;14.83;8.40;;;;;;;;;;5100109;28;20286;-66
2022/10/27 08:57:49;;;;;;;18.27;7.90;;;;;;;;;;5100550;28;20213;-66
2022/10/27 09:00:17;;;;;;;16.40;9.00;;;;;;;;;;5100369;28;20221;-64
2022/10/27 09:03:02;;;;;;;14.53;7.73;;;;;;;;;;5099802;28;20202;-64
2022/10/27 09:05:40;;;;;;;21.77;8.20;;;;;;;;;;5100485;28;20237;-64
2022/10/27 09:08:14;;;;;;;13.27;7.57;;;;;;;;;;5100147;28;20241;-65
2022/10/27 09:10:44;;;;;;;15.87;7.43;;;;;;;;;;5100030;28;20224;-66
2022/10/27 09:13:29;;;;;;;15.57;7.43;;;;;;;;;;5099911;28;20623;-66
2022/10/27 09:15:58;;;;;;;13.00;6.90;;;;;;;;;;5099527;28;20210;-65
2022/10/27 09:18:27;;;;;;;12.20;6.93;;;;;;;;;;5100001;28;20274;-64
2022/10/27 09:20:56;;;;;;;17.97;7.80;;;;;;;;;;5099958;28;20268;-65
2022/10/27 09:23:25;;;;;;;15.60;7.47;;;;;;;;;;5099747;28;20263;-65
2022/10/27 09:25:56;;;;;;;14.23;7.67;;;;;;;;;;5099867;28;20244;-65
2022/10/27 09:28:28;;;;;;;14.47;7.53;;;;;;;;;;5099895;28;20215;-66
2022/10/27 09:30:57;;;;;;;18.70;7.57;;;;;;;;;;5099276;28;20247;-66
2022/10/27 09:33:27;;;;;;;11.43;7.10;;;;;;;;;;5099485;28;20593;-66
2022/10/27 09:35:55;;;;;;;15.73;7.10;;;;;;;;;;5100222;28;20208;-64
2022/10/27 09:38:24;;;;;;;12.13;7.10;;;;;;;;;;5099719;28;20235;-65
2022/10/27 09:40:52;;;;;;;19.00;7.40;;;;;;;;;;5099478;28;20263;-65
2022/10/27 09:43:22;;;;;;;16.57;7.00;;;;;;;;;;5099459;28;20263;-65
2022/10/27 09:45:51;;;;;;;11.77;6.13;;;;;;;;;;5099594;28;20215;-64
2022/10/27 09:48:19;;;;;;;13.80;6.43;;;;;;;;;;5099209;28;20299;-66
2022/10/27 09:50:50;;;;;;;14.73;6.63;;;;;;;;;;5099267;28;20205;-66
2022/10/27 09:53:38;;;;;;;15.70;6.33;;;;;;;;;;5099224;28;20204;-64
2022/10/27 09:56:07;;;;;;;16.07;6.83;;;;;;;;;;5099001;28;20244;-65
2022/10/27 09:58:43;;;;;;;11.23;6.20;;;;;;;;;;5099480;28;20243;-66
2022/10/27 10:01:12;;;;;;;16.37;6.63;;;;;;;;;;5098714;28;20226;-66
2022/10/27 10:03:40;;;;;;;12.30;6.40;;;;;;;;;;5098858;28;20628;-66
2022/10/27 10:06:23;;;;;;;12.90;6.10;;;;;;;;;;5099389;28;20209;-66
2022/10/27 10:08:51;;;;;;;15.03;6.43;;;;;;;;;;5099141;28;20209;-66
2022/10/27 10:11:20;;;;;;;13.20;6.43;;;;;;;;;;5099214;28;20205;-66
2022/10/27 10:13:59;;;;;;;14.10;6.70;;;;;;;;;;5098803;28;20712;-66
2022/10/27 10:16:29;;;;;;;11.30;5.83;;;;;;;;;;5098576;28;20236;-66
2022/10/27 10:19:06;;;;;;;13.33;6.40;;;;;;;;;;5099213;28;20297;-66
2022/10/27 10:21:43;;;;;;;15.00;6.30;;;;;;;;;;5098645;28;20310;-66
2022/10/27 10:24:15;;;;;;;14.40;6.43;;;;;;;;;;5098624;28;20257;-66
2022/10/27 10:26:45;;;;;;;14.47;6.23;;;;;;;;;;5098883;28;20267;-66
2022/10/27 10:29:17;;;;;;;14.33;6.43;;;;;;;;;;5098488;28;20241;-66
2022/10/27 10:31:45;;;;;;;9.40;5.80;;;;;;;;;;5098664;28;20208;-67
2022/10/27 10:34:26;;;;;;;13.43;5.97;;;;;;;;;;5098363;28;20313;-65
2022/10/27 10:36:53;;;;;;;13.97;6.03;;;;;;;;;;5098758;28;20788;-66
2022/10/27 10:39:22;;;;;;;12.97;6.00;;;;;;;;;;5098720;28;20202;-66
2022/10/27 10:42:05;;;;;;;21.50;6.17;;;;;;;;;;5098644;28;20315;-65
2022/10/27 10:44:34;;;;;;;12.33;6.17;;;;;;;;;;5098492;28;20313;-66
2022/10/27 10:47:04;;;;;;;11.70;5.70;;;;;;;;;;5098042;28;20289;-66
2022/10/27 10:49:36;;;;;;;16.40;5.63;;;;;;;;;;5098566;28;20237;-66
2022/10/27 10:52:06;;;;;;;14.07;5.70;;;;;;;;;;5098156;28;20495;-67
2022/10/27 10:54:34;;;;;;;14.47;5.77;;;;;;;;;;5098178;28;20242;-66
2022/10/27 10:57:03;;;;;;;11.70;5.53;;;;;;;;;;5098123;28;20207;-67
2022/10/27 10:59:35;;;;;;;10.43;5.27;;;;;;;;;;5098487;28;20240;-66
2022/10/27 11:02:05;;;;;;;13.43;4.90;;;;;;;;;;5097639;28;20256;-66
2022/10/27 11:04:39;;;;;;;9.90;6.20;;;;;;;;;;5098091;28;20227;-67
2022/10/27 11:07:15;;;;;;;10.13;5.87;;;;;;;;;;5098288;28;20208;-66
2022/10/27 11:09:47;;;;;;;13.17;5.90;;;;;;;;;;5098036;28;20299;-67
2022/10/27 11:12:20;;;;;;;11.27;5.07;;;;;;;;;;5097368;28;20290;-66
2022/10/27 11:14:49;;;;;;;12.70;5.70;;;;;;;;;;5098169;28;20260;-67
2022/10/27 11:17:23;;;;;;;12.73;5.77;;;;;;;;;;5097949;28;20211;-67
2022/10/27 11:19:52;;;;;;;12.37;5.37;;;;;;;;;;5098068;28;20236;-66
2022/10/27 11:22:25;;;;;;;9.00;5.27;;;;;;;;;;5097803;28;20236;-67
2022/10/27 11:24:54;;;;;;;10.07;5.23;;;;;;;;;;5097932;28;20262;-67
2022/10/27 11:27:25;;;;;;;8.43;5.20;;;;;;;;;;5097743;28;20239;-67
2022/10/27 11:29:58;;;;;;;9.03;5.30;;;;;;;;;;5098146;28;20213;-66
2022/10/27 11:32:32;;;;;;;10.27;4.97;;;;;;;;;;5097545;28;20568;-67
2022/10/27 11:35:05;;;;;;;10.17;5.03;;;;;;;;;;5097575;28;20235;-67
2022/10/27 11:37:36;;;;;;;15.33;6.20;;;;;;;;;;5097655;28;20215;-67
2022/10/27 11:40:08;;;;;;;9.83;5.83;;;;;;;;;;5097917;28;20267;-66
2022/10/27 11:42:39;;;;;;;8.73;5.13;;;;;;;;;;5097740;28;20255;-66
2022/10/27 11:45:11;;;;;;;11.93;5.10;;;;;;;;;;5097673;28;20251;-67
2022/10/27 11:47:42;;;;;;;12.50;5.50;;;;;;;;;;5097580;28;20245;-66
2022/10/27 11:50:13;;;;;;;14.60;6.57;;;;;;;;;;5097754;28;20239;-67
2022/10/27 11:52:42;;;;;;;22.87;7.30;;;;;;;;;;5097240;28;20202;-66
2022/10/27 11:55:11;;;;;;;15.67;6.20;;;;;;;;;;5097247;28;20723;-67
2022/10/27 11:57:47;;;;;;;14.40;6.23;;;;;;;;;;5093811;28;20217;-67
2022/10/27 12:00:17;;;;;;;13.83;5.57;;;;;;;;;;5097334;28;20666;-67
2022/10/27 12:03:00;;;;;;;8.90;4.93;;;;;;;;;;5096917;28;20262;-67
2022/10/27 12:05:31;;;;;;;14.23;4.73;;;;;;;;;;5063961;28;20235;-67
2022/10/27 12:08:02;;;;;;;14.73;5.33;;;;;;;;;;5097159;28;20215;-66
2022/10/27 12:10:36;;;;;;;10.73;4.57;;;;;;;;;;5097372;28;20574;-67
2022/10/27 12:13:06;;;;;;;15.10;5.63;;;;;;;;;;5097362;28;20706;-67
2022/10/27 12:15:37;;;;;;;11.03;5.23;;;;;;;;;;5096901;28;20233;-67
2022/10/27 12:18:09;;;;;;;12.53;5.27;;;;;;;;;;5097144;28;20228;-66
2022/10/27 12:20:42;;;;;;;12.13;5.17;;;;;;;;;;5097347;28;20207;-66
2022/10/27 12:23:12;;;;;;;10.83;5.87;;;;;;;;;;5097632;28;20279;-67
2022/10/27 12:25:41;;;;;;;12.37;5.10;;;;;;;;;;5101125;28;20664;-67
2022/10/27 12:28:11;;;;;;;13.10;5.50;;;;;;;;;;5101102;28;20240;-66
2022/10/27 12:30:42;;;;;;;10.23;4.70;;;;;;;;;;5100979;28;20234;-66
2022/10/27 12:33:13;;;;;;;12.27;5.47;;;;;;;;;;5100703;28;20239;-67
2022/10/27 12:35:44;;;;;;;7.97;4.80;;;;;;;;;;5100997;28;20244;-66
2022/10/27 12:38:16;;;;;;;10.23;4.80;;;;;;;;;;5100921;28;20652;-66
2022/10/27 12:40:49;;;;;;;11.83;5.00;;;;;;;;;;5100845;28;20695;-67
2022/10/27 12:43:21;;;;;;;10.80;4.73;;;;;;;;;;5100724;28;20271;-67
2022/10/27 12:45:55;;;;;;;13.23;4.83;;;;;;;;;;5100294;28;20212;-66
2022/10/27 12:48:25;;;;;;;8.77;4.10;;;;;;;;;;5100742;28;20236;-67
2022/10/27 12:51:00;;;;;;;7.97;4.10;;;;;;;;;;5100447;28;20635;-67
2022/10/27 12:53:31;;;;;;;9.80;4.30;;;;;;;;;;5100263;28;20291;-67
2022/10/27 12:56:02;;;;;;;9.87;4.60;;;;;;;;;;5100289;28;20292;-67
2022/10/27 12:58:36;;;;;;;8.00;4.60;;;;;;;;;;5100613;28;20230;-67
2022/10/27 13:01:10;;;;;;;12.63;4.83;;;;;;;;;;5099996;28;20240;-66
2022/10/27 13:03:51;;;;;;;11.97;4.20;;;;;;;;;;5100223;28;20673;-67
2022/10/27 13:06:26;;;;;;;9.00;4.13;;;;;;;;;;5100319;28;20202;-66
2022/10/27 13:09:14;;;;;;;12.00;4.60;;;;;;;;;;5100329;28;20316;-67
2022/10/27 13:11:51;;;;;;;13.23;4.90;;;;;;;;;;5095887;28;20653;-67
2022/10/27 13:14:27;;;;;;;12.60;3.87;;;;;;;;;;5100859;28;20256;-67
2022/10/27 13:16:59;;;;;;;15.17;4.27;;;;;;;;;;5100231;28;20224;-67
2022/10/27 13:19:35;;;;;;;8.90;4.00;;;;;;;;;;5100439;28;20206;-67
2022/10/27 13:22:07;;;;;;;11.50;3.90;;;;;;;;;;5100108;28;20209;-67
2022/10/27 13:24:37;;;;;;;9.70;3.63;;;;;;;;;;5099792;28;20263;-66
2022/10/27 13:27:08;;;;;;;9.50;4.53;;;;;;;;;;5100136;28;20206;-66
2022/10/27 13:29:42;;;;;;;10.60;4.17;;;;;;;;;;5100075;28;20693;-66
2022/10/27 13:32:16;;;;;;;8.37;3.97;;;;;;;;;;5099788;28;20247;-65
2022/10/27 13:35:17;;;;;;;14.47;4.30;;;;;;;;;;5098919;28;20313;-65
2022/10/27 13:37:47;;;;;;;9.10;3.93;;;;;;;;;;5099637;28;20205;-67
2022/10/27 13:40:36;;;;;;;9.43;3.80;;;;;;;;;;5099839;28;20244;-65
2022/10/27 13:43:23;;;;;;;12.80;3.67;;;;;;;;;;5099868;28;20230;-65
2022/10/27 13:45:51;;;;;;;7.47;3.77;;;;;;;;;;5099296;28;20205;-66
2022/10/27 13:48:32;;;;;;;9.90;4.20;;;;;;;;;;5099427;28;20211;-67
2022/10/27 13:51:20;;;;;;;10.17;3.57;;;;;;;;;;5099660;28;20735;-67
2022/10/27 13:54:26;;;;;;;8.77;3.60;;;;;;;;;;5099247;28;20222;-67
2022/10/27 13:56:56;;;;;;;12.50;4.30;;;;;;;;;;5099432;28;20213;-66
2022/10/27 13:59:26;;;;;;;10.20;3.53;;;;;;;;;;5099723;28;20238;-66
2022/10/27 14:01:55;;;;;;;7.27;3.50;;;;;;;;;;5098929;28;20194;-64
2022/10/27 14:04:31;;;;;;;11.77;3.53;;;;;;;;;;5098987;28;20579;-66
2022/10/27 14:07:00;;;;;;;10.57;3.90;;;;;;;;;;5099335;28;20286;-66
2022/10/27 14:09:30;;;;;;;5.47;3.27;;;;;;;;;;5098976;28;20214;-66
2022/10/27 14:12:00;;;;;;;8.13;4.00;;;;;;;;;;5099211;28;20234;-66
2022/10/27 14:14:30;;;;;;;9.77;3.90;;;;;;;;;;5099027;28;20265;-66
2022/10/27 14:17:00;;;;;;;14.03;4.17;;;;;;;;;;5098937;28;20229;-66
2022/10/27 14:19:28;;;;;;;7.23;4.10;;;;;;;;;;5098953;28;20202;-66
2022/10/27 14:21:57;;;;;;;9.37;4.63;;;;;;;;;;5099058;28;20215;-66
2022/10/27 14:24:26;;;;;;;12.13;3.77;;;;;;;;;;5098404;28;20225;-66
2022/10/27 14:26:58;;;;;;;12.47;3.73;;;;;;;;;;5098880;28;20203;-66
2022/10/27 14:29:27;;;;;;;10.83;3.93;;;;;;;;;;5098598;28;20289;-67
2022/10/27 14:32:09;;;;;;;10.43;3.70;;;;;;;;;;5098109;28;20572;-67
2022/10/27 14:34:40;;;;;;;8.17;3.60;;;;;;;;;;5098728;28;20226;-66
2022/10/27 14:37:14;;;;;;;12.80;3.87;;;;;;;;;;5098711;28;20233;-66
2022/10/27 14:39:42;;;;;;;14.40;4.27;;;;;;;;;;5098546;28;20284;-66
2022/10/27 14:42:15;;;;;;;9.87;3.30;;;;;;;;;;5098554;28;20245;-67
2022/10/27 14:44:44;;;;;;;9.53;3.37;;;;;;;;;;5098372;28;20255;-66
2022/10/27 14:47:14;;;;;;;7.97;3.87;;;;;;;;;;5097793;28;20245;-66
2022/10/27 14:49:45;;;;;;;9.43;3.57;;;;;;;;;;5098438;28;20646;-66
2022/10/27 14:52:17;;;;;;;10.13;3.50;;;;;;;;;;5098124;28;20639;-65